createdAt,value
2023-02-19T00:01:53.432Z,7.54
2023-02-19T00:04:23.673Z,7.51
2023-02-19T00:06:51.942Z,7.45
2023-02-19T00:09:21.614Z,7.43
2023-02-19T00:11:49.660Z,7.40
2023-02-19T00:14:19.935Z,7.42
2023-02-19T00:16:49.368Z,7.35
2023-02-19T00:19:20.115Z,7.34
2023-02-19T00:21:48.649Z,7.37
2023-02-19T00:24:16.770Z,7.31
2023-02-19T00:26:46.208Z,7.25
2023-02-19T00:29:16.903Z,7.28
2023-02-19T00:31:46.121Z,7.31
2023-02-19T00:34:15.937Z,7.31
2023-02-19T00:36:44.561Z,7.26
2023-02-19T00:39:16.287Z,7.28
2023-02-19T00:41:44.566Z,7.27
2023-02-19T00:44:13.791Z,7.28
2023-02-19T00:46:44.051Z,7.24
2023-02-19T00:49:19.746Z,7.22
2023-02-19T00:51:48.771Z,7.21
2023-02-19T00:54:17.564Z,7.23
2023-02-19T00:56:45.543Z,7.25
2023-02-19T00:59:13.517Z,7.25
2023-02-19T01:01:42.010Z,7.27
2023-02-19T01:04:09.831Z,7.29
2023-02-19T01:06:39.066Z,7.27
2023-02-19T01:09:07.757Z,7.28
2023-02-19T01:11:35.843Z,7.25
2023-02-19T01:14:05.002Z,7.29
2023-02-19T01:16:33.566Z,7.29
2023-02-19T01:19:01.945Z,7.28
2023-02-19T01:21:31.734Z,7.23
2023-02-19T01:24:01.314Z,7.26
2023-02-19T01:26:31.619Z,7.25
2023-02-19T01:29:00.317Z,7.24
2023-02-19T01:31:28.886Z,7.23
2023-02-19T01:33:58.815Z,7.28
2023-02-19T01:36:27.797Z,7.30
2023-02-19T01:38:56.104Z,7.30
2023-02-19T01:41:26.911Z,7.35
2023-02-19T01:43:58.678Z,7.31
2023-02-19T01:46:28.206Z,7.30
2023-02-19T01:49:00.288Z,7.31
2023-02-19T01:51:28.989Z,7.24
2023-02-19T01:54:01.794Z,7.29
2023-02-19T01:56:35.377Z,7.23
2023-02-19T01:59:03.752Z,7.23
2023-02-19T02:01:31.867Z,7.23
2023-02-19T02:03:59.939Z,7.25
2023-02-19T02:06:32.542Z,7.29
2023-02-19T02:09:19.106Z,7.24
2023-02-19T02:11:51.449Z,7.27
2023-02-19T02:14:26.685Z,7.36
2023-02-19T02:17:01.864Z,7.40
2023-02-19T02:19:51.465Z,7.37
2023-02-19T02:22:24.290Z,7.40
2023-02-19T02:25:21.775Z,7.35
2023-02-19T02:28:03.364Z,7.36
2023-02-19T02:30:40.662Z,7.36
2023-02-19T02:33:27.386Z,7.40
2023-02-19T02:36:02.111Z,7.38
2023-02-19T02:38:33.760Z,7.42
2023-02-19T02:41:02.945Z,7.40
2023-02-19T02:43:30.820Z,7.39
2023-02-19T02:46:00.555Z,7.46
2023-02-19T02:48:36.869Z,7.48
2023-02-19T02:51:13.349Z,7.51
2023-02-19T02:54:06.548Z,7.55
2023-02-19T02:56:36.133Z,7.62
2023-02-19T02:59:08.999Z,7.72
2023-02-19T03:02:02.654Z,7.71
2023-02-19T03:05:00.221Z,7.71
2023-02-19T03:07:34.842Z,7.73
2023-02-19T03:10:06.200Z,7.74
2023-02-19T03:12:57.930Z,7.75
2023-02-19T03:15:48.471Z,7.72
2023-02-19T03:18:40.033Z,7.69
2023-02-19T03:21:09.847Z,7.75
2023-02-19T03:23:56.759Z,7.74
2023-02-19T03:26:27.632Z,7.70
2023-02-19T03:29:16.327Z,7.76
2023-02-19T03:31:48.433Z,7.73
2023-02-19T03:34:26.136Z,7.70
2023-02-19T03:37:02.315Z,7.68
2023-02-19T03:39:30.636Z,7.70
2023-02-19T03:42:07.873Z,7.70
2023-02-19T03:44:45.918Z,7.71
2023-02-19T03:47:22.128Z,7.76
2023-02-19T03:50:01.197Z,7.68
2023-02-19T03:52:41.030Z,7.73
2023-02-19T03:55:17.498Z,7.74
2023-02-19T03:57:52.724Z,7.76
2023-02-19T04:00:29.193Z,7.72
2023-02-19T04:03:04.739Z,7.65
2023-02-19T04:05:41.176Z,7.65
2023-02-19T04:08:16.994Z,7.69
2023-02-19T04:10:48.248Z,7.71
2023-02-19T04:13:23.491Z,7.61
2023-02-19T04:15:55.464Z,7.69
2023-02-19T04:18:29.384Z,7.67
2023-02-19T04:21:01.537Z,7.65
2023-02-19T04:23:36.595Z,7.63
2023-02-19T04:26:07.967Z,7.61
2023-02-19T04:28:35.955Z,7.59
2023-02-19T04:31:03.894Z,7.57
2023-02-19T04:33:31.877Z,7.61
2023-02-19T04:36:01.204Z,7.58
2023-02-19T04:38:29.084Z,7.52
2023-02-19T04:40:56.985Z,7.53
2023-02-19T04:43:24.860Z,7.43
2023-02-19T04:45:52.693Z,7.42
2023-02-19T04:48:20.609Z,7.38
2023-02-19T04:50:48.444Z,7.34
2023-02-19T04:53:17.631Z,7.30
2023-02-19T04:55:45.509Z,7.34
2023-02-19T04:58:13.408Z,7.27
2023-02-19T05:00:41.315Z,7.25
2023-02-19T05:03:09.170Z,7.22
2023-02-19T05:05:36.984Z,7.16
2023-02-19T05:08:04.902Z,7.09
2023-02-19T05:10:34.741Z,7.06
2023-02-19T05:13:02.603Z,7.06
2023-02-19T05:15:30.507Z,7.01
2023-02-19T05:17:58.401Z,7.01
2023-02-19T05:20:26.252Z,6.99
2023-02-19T05:22:54.104Z,6.96
2023-02-19T05:25:21.972Z,6.95
2023-02-19T05:28:11.142Z,6.96
2023-02-19T05:30:38.970Z,6.94
2023-02-19T05:33:06.860Z,6.88
2023-02-19T05:35:34.719Z,6.89
2023-02-19T05:38:02.545Z,6.83
2023-02-19T05:40:30.494Z,6.78
2023-02-19T05:42:59.652Z,6.80
2023-02-19T05:45:27.547Z,6.77
2023-02-19T05:47:55.364Z,6.77
2023-02-19T05:50:23.336Z,6.79
2023-02-19T05:52:51.186Z,6.74
2023-02-19T05:55:19.251Z,6.73
2023-02-19T05:57:48.799Z,6.76
2023-02-19T06:00:20.738Z,6.71
2023-02-19T06:02:49.110Z,6.71
2023-02-19T06:05:17.012Z,6.66
2023-02-19T06:07:44.823Z,6.60
2023-02-19T06:10:13.883Z,6.63
2023-02-19T06:12:41.712Z,6.64
2023-02-19T06:15:09.968Z,6.67
2023-02-19T06:17:39.301Z,6.63
2023-02-19T06:20:08.698Z,6.63
2023-02-19T06:22:36.554Z,6.63
2023-02-19T06:25:04.838Z,6.62
2023-02-19T06:27:32.673Z,6.65
2023-02-19T06:30:00.737Z,6.64
2023-02-19T06:32:28.637Z,6.68
2023-02-19T06:34:57.851Z,6.67
2023-02-19T06:37:25.702Z,6.70
2023-02-19T06:39:53.541Z,6.67
2023-02-19T06:42:21.391Z,6.63
2023-02-19T06:44:49.267Z,6.62
2023-02-19T06:47:17.069Z,6.64
2023-02-19T06:49:45.225Z,6.59
2023-02-19T06:52:14.429Z,6.62
2023-02-19T06:54:42.251Z,6.67
2023-02-19T06:57:10.064Z,6.66
2023-02-19T06:59:37.872Z,6.64
2023-02-19T07:02:05.824Z,6.71
2023-02-19T07:04:33.669Z,6.67
2023-02-19T07:07:01.485Z,6.69
2023-02-19T07:09:30.674Z,6.66
2023-02-19T07:11:58.516Z,6.66
2023-02-19T07:14:26.455Z,6.69
2023-02-19T07:16:54.271Z,6.72
2023-02-19T07:19:22.352Z,6.72
2023-02-19T07:21:50.187Z,6.71
2023-02-19T07:24:19.123Z,6.75
2023-02-19T07:26:48.356Z,6.71
2023-02-19T07:29:16.313Z,6.78
2023-02-19T07:31:44.583Z,6.78
2023-02-19T07:34:12.464Z,6.78
2023-02-19T07:36:40.316Z,6.77
2023-02-19T07:39:10.134Z,6.82
2023-02-19T07:41:38.073Z,6.81
2023-02-19T07:44:07.408Z,6.91
2023-02-19T07:46:35.264Z,6.89
2023-02-19T07:49:03.125Z,6.89
2023-02-19T07:51:30.957Z,6.94
2023-02-19T07:53:58.793Z,6.94
2023-02-19T07:56:28.776Z,6.96
2023-02-19T07:58:56.647Z,6.96
2023-02-19T08:01:46.125Z,6.99
2023-02-19T08:04:14.483Z,6.99
2023-02-19T08:06:43.473Z,7.03
2023-02-19T08:09:11.856Z,7.03
2023-02-19T08:11:57.656Z,7.05
2023-02-19T08:14:26.589Z,7.02
2023-02-19T08:16:56.434Z,7.00
2023-02-19T08:19:24.494Z,7.01
2023-02-19T08:21:53.455Z,6.96
2023-02-19T08:24:21.375Z,6.96
2023-02-19T08:26:49.220Z,6.92
2023-02-19T08:29:17.027Z,6.97
2023-02-19T08:31:45.171Z,6.98
2023-02-19T08:34:14.486Z,6.99
2023-02-19T08:36:42.606Z,7.03
2023-02-19T08:39:10.487Z,7.03
2023-02-19T08:41:38.326Z,7.02
2023-02-19T08:44:06.303Z,7.03
2023-02-19T08:46:34.571Z,6.98
2023-02-19T08:49:02.538Z,6.94
2023-02-19T08:51:31.789Z,6.92
2023-02-19T08:53:59.625Z,6.96
2023-02-19T08:56:27.505Z,6.98
2023-02-19T08:58:55.351Z,7.00
2023-02-19T09:01:23.966Z,7.11
2023-02-19T09:03:51.910Z,7.07
2023-02-19T09:06:21.752Z,7.03
2023-02-19T09:08:50.952Z,7.06
2023-02-19T09:11:18.815Z,7.01
2023-02-19T09:13:46.680Z,6.99
2023-02-19T09:16:14.542Z,6.93
2023-02-19T09:18:42.403Z,6.83
2023-02-19T09:21:10.884Z,6.80
2023-02-19T09:23:39.048Z,6.80
2023-02-19T09:26:10.049Z,6.86
2023-02-19T09:28:41.556Z,6.86
2023-02-19T09:31:12.252Z,6.88
2023-02-19T09:33:44.374Z,6.95
2023-02-19T09:36:12.774Z,6.98
2023-02-19T09:38:40.952Z,7.13
2023-02-19T09:41:19.052Z,7.34
2023-02-19T09:43:47.607Z,7.65
2023-02-19T09:46:28.703Z,7.70
2023-02-19T09:49:05.338Z,7.75
2023-02-19T09:51:37.715Z,7.75
2023-02-19T09:54:12.214Z,7.86
2023-02-19T09:56:41.523Z,7.90
2023-02-19T09:59:21.358Z,7.85
2023-02-19T10:01:56.853Z,7.85
2023-02-19T10:04:24.859Z,7.79
2023-02-19T10:06:53.018Z,7.86
2023-02-19T10:09:26.739Z,7.83
2023-02-19T10:11:59.491Z,7.85
2023-02-19T10:14:36.185Z,7.83
2023-02-19T10:17:07.231Z,7.85
2023-02-19T10:19:37.056Z,7.78
2023-02-19T10:22:06.065Z,7.74
2023-02-19T10:24:33.948Z,7.77
2023-02-19T10:27:03.223Z,7.67
2023-02-19T10:29:31.165Z,7.74
2023-02-19T10:32:18.287Z,7.68
2023-02-19T10:34:46.184Z,7.73
2023-02-19T10:37:19.120Z,7.74
2023-02-19T10:39:50.662Z,7.82
2023-02-19T10:42:23.091Z,7.76
2023-02-19T10:44:56.369Z,7.82
2023-02-19T10:47:28.429Z,7.88
2023-02-19T10:50:02.127Z,7.85
2023-02-19T10:52:36.735Z,7.89
2023-02-19T10:55:28.291Z,7.93
2023-02-19T10:57:58.768Z,7.92
2023-02-19T11:00:30.540Z,7.90
2023-02-19T11:03:20.218Z,7.88
2023-02-19T11:06:02.031Z,8.05
2023-02-19T11:08:31.525Z,8.01
2023-02-19T11:10:59.405Z,8.06
2023-02-19T11:13:37.879Z,7.95
2023-02-19T11:16:06.773Z,8.00
2023-02-19T11:18:36.208Z,7.93
2023-02-19T11:21:06.997Z,7.89
2023-02-19T11:23:39.371Z,7.86
2023-02-19T11:26:18.966Z,7.92
2023-02-19T11:28:58.072Z,7.75
2023-02-19T11:31:28.944Z,7.79
2023-02-19T11:33:59.174Z,7.86
2023-02-19T11:36:32.973Z,7.87
2023-02-19T11:39:17.657Z,7.92
2023-02-19T11:42:02.565Z,7.94
2023-02-19T11:44:46.243Z,7.97
2023-02-19T11:47:47.113Z,8.00
2023-02-19T11:50:26.939Z,8.03
2023-02-19T11:53:14.798Z,8.05
2023-02-19T11:55:56.927Z,7.93
2023-02-19T11:58:47.498Z,7.86
2023-02-19T12:01:29.530Z,7.94
2023-02-19T12:04:28.221Z,7.95
2023-02-19T12:07:11.869Z,7.98
2023-02-19T12:09:59.230Z,8.08
2023-02-19T12:12:45.348Z,8.01
2023-02-19T12:15:42.132Z,7.92
2023-02-19T12:18:44.474Z,7.83
2023-02-19T12:21:29.727Z,7.78
2023-02-19T12:24:41.902Z,7.65
2023-02-19T12:27:26.502Z,7.63
2023-02-19T12:30:18.193Z,7.69
2023-02-19T12:33:09.387Z,7.70
2023-02-19T12:35:57.236Z,7.67
2023-02-19T12:38:33.548Z,7.66
2023-02-19T12:41:30.784Z,7.61
2023-02-19T12:44:05.454Z,7.64
2023-02-19T12:46:39.738Z,7.57
2023-02-19T12:49:15.526Z,7.46
2023-02-19T12:51:49.869Z,7.48
2023-02-19T12:54:24.681Z,7.50
2023-02-19T12:57:01.362Z,7.46
2023-02-19T12:59:37.522Z,7.51
2023-02-19T13:02:15.920Z,7.49
2023-02-19T13:04:52.237Z,7.51
2023-02-19T13:07:29.194Z,7.50
2023-02-19T13:10:05.806Z,7.61
2023-02-19T13:12:39.313Z,7.73
2023-02-19T13:15:19.462Z,7.74
2023-02-19T13:17:53.187Z,7.90
2023-02-19T13:20:28.036Z,8.06
2023-02-19T13:23:24.336Z,8.10
2023-02-19T13:26:15.721Z,8.05
2023-02-19T13:29:00.979Z,8.08
2023-02-19T13:31:48.583Z,8.08
2023-02-19T13:34:34.586Z,8.07
2023-02-19T13:37:04.453Z,8.19
2023-02-19T13:39:34.966Z,8.28
2023-02-19T13:42:03.466Z,8.25
2023-02-19T13:44:34.239Z,8.19
2023-02-19T13:47:06.158Z,8.17
2023-02-19T13:49:43.254Z,8.22
2023-02-19T13:52:42.795Z,8.22
2023-02-19T13:55:53.153Z,8.20
2023-02-19T13:58:54.300Z,8.16
2023-02-19T14:02:14.041Z,8.04
2023-02-19T14:04:48.456Z,8.10
2023-02-19T14:08:01.068Z,8.05
2023-02-19T14:11:03.295Z,8.07
2023-02-19T14:14:11.643Z,8.12
2023-02-19T14:17:07.507Z,8.11
2023-02-19T14:19:54.004Z,8.08
2023-02-19T14:23:10.945Z,8.13
2023-02-19T14:25:46.236Z,8.34
2023-02-19T14:28:33.605Z,8.53
2023-02-19T14:31:10.645Z,8.38
2023-02-19T14:33:41.297Z,8.30
2023-02-19T14:36:27.426Z,8.34
2023-02-19T14:38:59.498Z,8.35
2023-02-19T14:41:29.910Z,8.45
2023-02-19T14:44:02.933Z,8.36
2023-02-19T14:46:35.685Z,8.37
2023-02-19T14:49:15.856Z,8.38
2023-02-19T14:51:51.182Z,8.38
2023-02-19T14:54:30.269Z,8.30
2023-02-19T14:57:01.665Z,8.25
2023-02-19T14:59:31.677Z,8.21
2023-02-19T15:02:02.528Z,8.19
2023-02-19T15:04:36.212Z,8.18
2023-02-19T15:07:09.705Z,8.22
2023-02-19T15:09:43.166Z,8.20
2023-02-19T15:12:18.414Z,8.25
2023-02-19T15:14:49.666Z,8.30
2023-02-19T15:17:26.354Z,8.27
2023-02-19T15:19:55.652Z,8.16
2023-02-19T15:22:28.200Z,8.08
2023-02-19T15:24:56.248Z,7.97
2023-02-19T15:27:26.043Z,7.97
2023-02-19T15:29:55.339Z,7.87
2023-02-19T15:32:26.321Z,7.77
2023-02-19T15:34:55.944Z,7.79
2023-02-19T15:37:26.781Z,7.72
2023-02-19T15:39:57.717Z,7.72
2023-02-19T15:42:29.605Z,7.77
2023-02-19T15:45:05.081Z,7.72
2023-02-19T15:47:41.107Z,7.74
2023-02-19T15:50:17.147Z,7.69
2023-02-19T15:52:54.577Z,7.65
2023-02-19T15:55:34.533Z,7.59
2023-02-19T15:58:10.049Z,7.51
2023-02-19T16:00:46.933Z,7.58
2023-02-19T16:03:20.358Z,7.43
2023-02-19T16:05:59.545Z,7.31
2023-02-19T16:08:31.667Z,7.18
2023-02-19T16:11:01.695Z,7.23
2023-02-19T16:13:31.919Z,7.11
2023-02-19T16:16:13.637Z,7.12
2023-02-19T16:18:47.474Z,6.99
2023-02-19T16:21:21.496Z,6.94
2023-02-19T16:23:56.903Z,6.89
2023-02-19T16:26:24.831Z,6.88
2023-02-19T16:28:54.517Z,6.88
2023-02-19T16:31:25.414Z,6.91
2023-02-19T16:33:53.563Z,6.88
2023-02-19T16:36:26.823Z,6.84
2023-02-19T16:39:17.813Z,6.87
2023-02-19T16:42:19.508Z,6.88
2023-02-19T16:44:48.758Z,6.84
2023-02-19T16:47:31.043Z,6.83
2023-02-19T16:50:02.453Z,6.78
2023-02-19T16:52:31.142Z,6.85
2023-02-19T16:54:59.017Z,6.80
2023-02-19T16:57:26.889Z,6.82
2023-02-19T16:59:54.794Z,6.80
2023-02-19T17:02:25.744Z,6.81
2023-02-19T17:04:55.832Z,6.85
2023-02-19T17:07:24.540Z,6.88
2023-02-19T17:09:52.550Z,6.81
2023-02-19T17:12:20.491Z,6.86
2023-02-19T17:14:48.327Z,6.88
2023-02-19T17:17:16.236Z,6.88
2023-02-19T17:19:44.159Z,6.86
2023-02-19T17:22:16.919Z,6.88
2023-02-19T17:24:46.027Z,6.87
2023-02-19T17:27:14.481Z,6.87
2023-02-19T17:29:42.440Z,6.93
2023-02-19T17:32:10.389Z,6.89
2023-02-19T17:34:38.299Z,6.88
2023-02-19T17:37:06.163Z,6.87
2023-02-19T17:39:35.372Z,6.93
2023-02-19T17:42:03.858Z,6.89
2023-02-19T17:44:31.738Z,6.95
2023-02-19T17:46:59.689Z,6.96
2023-02-19T17:49:27.629Z,6.89
2023-02-19T17:51:55.502Z,6.95
2023-02-19T17:54:23.403Z,6.92
2023-02-19T17:56:52.689Z,6.88
2023-02-19T17:59:20.581Z,6.89
2023-02-19T18:01:48.462Z,6.87
2023-02-19T18:04:16.444Z,6.87
2023-02-19T18:06:44.610Z,6.86
2023-02-19T18:09:15.227Z,6.96
2023-02-19T18:11:46.285Z,6.95
2023-02-19T18:14:15.569Z,6.96
2023-02-19T18:16:49.771Z,6.92
2023-02-19T18:19:18.272Z,6.92
2023-02-19T18:21:46.183Z,6.92
2023-02-19T18:24:14.122Z,6.93
2023-02-19T18:26:42.137Z,6.94
2023-02-19T18:29:10.005Z,6.99
2023-02-19T18:31:39.568Z,6.98
2023-02-19T18:34:07.691Z,6.95
2023-02-19T18:36:35.548Z,6.93
2023-02-19T18:39:03.453Z,6.89
2023-02-19T18:41:31.315Z,6.83
2023-02-19T18:43:59.814Z,6.93
2023-02-19T18:46:27.717Z,6.93
2023-02-19T18:48:57.267Z,6.90
2023-02-19T18:51:25.382Z,6.87
2023-02-19T18:53:53.269Z,6.89
2023-02-19T18:56:21.160Z,6.87
2023-02-19T18:58:50.416Z,6.88
2023-02-19T19:01:18.506Z,6.90
2023-02-19T19:03:46.468Z,6.88
2023-02-19T19:06:15.725Z,6.89
2023-02-19T19:08:43.591Z,6.90
2023-02-19T19:11:11.766Z,6.91
2023-02-19T19:13:39.850Z,6.92
2023-02-19T19:16:07.972Z,6.94
2023-02-19T19:18:38.157Z,6.89
2023-02-19T19:21:09.525Z,6.88
2023-02-19T19:23:38.946Z,6.90
2023-02-19T19:26:08.244Z,6.91
2023-02-19T19:28:36.285Z,6.90
2023-02-19T19:31:04.699Z,6.93
2023-02-19T19:33:32.639Z,6.93
2023-02-19T19:36:00.554Z,6.91
2023-02-19T19:38:28.393Z,6.88
2023-02-19T19:40:57.654Z,6.91
2023-02-19T19:43:27.477Z,6.90
2023-02-19T19:45:55.367Z,6.89
2023-02-19T19:48:24.644Z,6.92
2023-02-19T19:50:52.481Z,6.89
2023-02-19T19:53:20.696Z,6.90
2023-02-19T19:55:48.500Z,6.83
2023-02-19T19:58:20.974Z,6.90
2023-02-19T20:00:48.856Z,6.82
2023-02-19T20:03:16.736Z,6.90
2023-02-19T20:05:45.841Z,6.92
2023-02-19T20:08:13.999Z,6.86
2023-02-19T20:10:43.424Z,6.85
2023-02-19T20:13:12.554Z,6.82
2023-02-19T20:15:41.819Z,6.88
2023-02-19T20:18:09.762Z,6.80
2023-02-19T20:20:37.713Z,6.77
2023-02-19T20:23:05.658Z,6.72
2023-02-19T20:25:33.948Z,6.74
2023-02-19T20:28:01.873Z,6.69
2023-02-19T20:30:29.772Z,6.69
2023-02-19T20:32:59.037Z,6.67
2023-02-19T20:35:28.628Z,6.71
2023-02-19T20:37:56.800Z,6.68
2023-02-19T20:40:27.446Z,6.72
2023-02-19T20:42:55.413Z,6.74
2023-02-19T20:45:23.484Z,6.66
2023-02-19T20:47:51.347Z,6.72
2023-02-19T20:50:20.956Z,6.60
2023-02-19T20:52:49.257Z,6.61
2023-02-19T20:55:17.176Z,6.51
2023-02-19T20:57:45.041Z,6.58
2023-02-19T21:00:15.566Z,6.53
2023-02-19T21:02:43.491Z,6.51
2023-02-19T21:05:11.402Z,6.42
2023-02-19T21:07:40.700Z,6.43
2023-02-19T21:10:09.946Z,6.38
2023-02-19T21:12:39.038Z,6.36
2023-02-19T21:15:07.394Z,6.38
2023-02-19T21:17:35.548Z,6.34
2023-02-19T21:20:03.476Z,6.28
2023-02-19T21:22:31.352Z,6.27
2023-02-19T21:25:00.562Z,6.30
2023-02-19T21:27:28.542Z,6.30
2023-02-19T21:29:56.414Z,6.30
2023-02-19T21:32:24.422Z,6.24
2023-02-19T21:34:52.363Z,6.23
2023-02-19T21:37:20.279Z,6.22
2023-02-19T21:39:48.222Z,6.16
2023-02-19T21:42:17.741Z,6.20
2023-02-19T21:44:45.645Z,6.17
2023-02-19T21:47:13.554Z,6.24
2023-02-19T21:49:41.810Z,6.14
2023-02-19T21:52:10.076Z,6.05
2023-02-19T21:54:37.986Z,6.09
2023-02-19T21:57:05.897Z,6.13
2023-02-19T21:59:35.131Z,6.07
2023-02-19T22:02:03.088Z,6.03
2023-02-19T22:04:31.134Z,6.08
2023-02-19T22:06:58.980Z,6.11
2023-02-19T22:09:26.914Z,6.08
2023-02-19T22:11:54.798Z,6.09
2023-02-19T22:14:22.657Z,6.12
2023-02-19T22:16:51.965Z,6.13
2023-02-19T22:19:20.045Z,6.13
2023-02-19T22:21:47.910Z,6.17
2023-02-19T22:24:18.441Z,6.14
2023-02-19T22:26:46.730Z,6.14
2023-02-19T22:29:16.404Z,6.17
2023-02-19T22:31:44.768Z,6.16
2023-02-19T22:34:15.526Z,6.22
2023-02-19T22:36:44.160Z,6.14
2023-02-19T22:39:18.582Z,6.20
2023-02-19T22:41:46.910Z,6.18
2023-02-19T22:44:15.342Z,6.16
2023-02-19T22:46:49.282Z,6.19
2023-02-19T22:49:19.149Z,6.23
2023-02-19T22:51:54.767Z,6.25
2023-02-19T22:54:26.726Z,6.21
2023-02-19T22:56:54.743Z,6.20
2023-02-19T22:59:23.357Z,6.18
2023-02-19T23:01:51.384Z,6.20
2023-02-19T23:04:22.426Z,6.22
2023-02-19T23:06:51.340Z,6.29
2023-02-19T23:09:21.858Z,6.36
2023-02-19T23:11:50.143Z,6.31
2023-02-19T23:14:20.033Z,6.26
2023-02-19T23:16:47.987Z,6.25
2023-02-19T23:19:17.272Z,6.21
2023-02-19T23:21:46.800Z,6.20
2023-02-19T23:24:15.812Z,6.17
2023-02-19T23:26:44.955Z,6.25
2023-02-19T23:29:16.124Z,6.19
2023-02-19T23:31:44.145Z,6.18
2023-02-19T23:34:12.985Z,6.16
2023-02-19T23:36:42.152Z,6.17
2023-02-19T23:39:14.178Z,6.20
2023-02-19T23:41:47.487Z,6.15
2023-02-19T23:44:15.477Z,6.15
2023-02-19T23:46:43.324Z,6.16
2023-02-19T23:49:11.198Z,6.23
2023-02-19T23:51:39.201Z,6.11
2023-02-19T23:54:07.747Z,6.17
2023-02-19T23:56:37.093Z,6.11
2023-02-19T23:59:05.787Z,6.19
